createdAt,value
2019-02-15T00:01:20.165Z,9.08
2019-02-15T00:03:48.745Z,9.03
2019-02-15T00:06:17.316Z,8.93
2019-02-15T00:08:45.807Z,9.40
2019-02-15T00:11:14.340Z,8.95
2019-02-15T00:13:42.904Z,8.88
2019-02-15T00:16:11.443Z,8.95
2019-02-15T00:18:47.632Z,9.73
2019-02-15T00:21:17.734Z,8.70
2019-02-15T00:23:46.290Z,9.25
2019-02-15T00:26:16.549Z,8.08
2019-02-15T00:28:45.020Z,9.05
2019-02-15T00:31:15.087Z,9.80
2019-02-15T00:33:43.569Z,8.35
2019-02-15T00:36:12.154Z,8.45
2019-02-15T00:38:40.712Z,7.95
2019-02-15T00:41:31.298Z,8.00
2019-02-15T00:43:59.945Z,8.68
2019-02-15T00:46:36.321Z,8.93
2019-02-15T00:49:05.990Z,7.62
2019-02-15T00:51:53.107Z,8.40
2019-02-15T00:54:23.253Z,7.30
2019-02-15T00:56:59.091Z,7.97
2019-02-15T00:59:31.792Z,7.80
2019-02-15T01:02:02.019Z,6.92
2019-02-15T01:04:35.308Z,7.53
2019-02-15T01:07:05.518Z,8.00
2019-02-15T01:09:41.991Z,7.47
2019-02-15T01:12:12.137Z,7.78
2019-02-15T01:14:40.681Z,7.75
2019-02-15T01:17:09.624Z,7.33
2019-02-15T01:19:38.239Z,7.50
2019-02-15T01:22:06.804Z,7.62
2019-02-15T01:24:35.297Z,7.45
2019-02-15T01:27:05.403Z,7.78
2019-02-15T01:29:44.472Z,7.30
2019-02-15T01:32:14.550Z,6.83
2019-02-15T01:34:44.686Z,7.37
2019-02-15T01:37:31.430Z,7.40
2019-02-15T01:40:01.625Z,7.03
2019-02-15T01:42:37.930Z,7.22
2019-02-15T01:45:08.591Z,6.42
2019-02-15T01:47:37.696Z,6.87
2019-02-15T01:50:07.954Z,6.87
2019-02-15T01:52:36.484Z,7.05
2019-02-15T01:55:06.603Z,6.97
2019-02-15T01:57:35.129Z,6.28
2019-02-15T02:00:05.017Z,6.70
2019-02-15T02:02:33.952Z,5.87
2019-02-15T02:05:02.532Z,6.78
2019-02-15T02:07:31.171Z,6.58
2019-02-15T02:10:00.230Z,6.90
2019-02-15T02:12:28.828Z,7.20
2019-02-15T02:14:57.489Z,7.92
2019-02-15T02:17:25.981Z,7.95
2019-02-15T02:19:54.580Z,7.60
2019-02-15T02:22:23.093Z,7.72
2019-02-15T02:24:51.641Z,6.90
2019-02-15T02:27:20.285Z,7.47
2019-02-15T02:29:48.824Z,7.83
2019-02-15T02:32:17.338Z,8.25
2019-02-15T02:34:46.017Z,7.45
2019-02-15T02:37:14.573Z,7.67
2019-02-15T02:39:43.203Z,6.85
2019-02-15T02:42:11.800Z,7.83
2019-02-15T02:44:40.248Z,7.10
2019-02-15T02:47:09.128Z,6.90
2019-02-15T02:49:37.799Z,8.15
2019-02-15T02:52:06.264Z,7.45
2019-02-15T02:54:34.934Z,7.47
2019-02-15T02:57:03.598Z,7.03
2019-02-15T02:59:32.180Z,7.92
2019-02-15T03:02:00.814Z,7.28
2019-02-15T03:04:29.473Z,7.47
2019-02-15T03:06:57.959Z,7.60
2019-02-15T03:09:26.536Z,7.90
2019-02-15T03:11:55.081Z,7.47
2019-02-15T03:14:23.648Z,8.33
2019-02-15T03:16:52.269Z,8.40
2019-02-15T03:19:20.718Z,7.50
2019-02-15T03:21:49.314Z,8.35
2019-02-15T03:24:17.909Z,7.72
2019-02-15T03:26:46.469Z,8.23
2019-02-15T03:29:15.097Z,8.75
2019-02-15T03:31:43.672Z,8.83
2019-02-15T03:34:12.441Z,8.80
2019-02-15T03:36:59.248Z,8.38
2019-02-15T03:39:41.420Z,9.35
2019-02-15T03:42:11.867Z,8.65
2019-02-15T03:44:40.565Z,9.23
2019-02-15T03:47:09.153Z,8.95
2019-02-15T03:49:37.663Z,8.58
2019-02-15T03:52:06.358Z,9.28
2019-02-15T03:54:34.931Z,8.93
2019-02-15T03:57:03.562Z,9.25
2019-02-15T03:59:32.065Z,9.30
2019-02-15T04:02:00.651Z,9.50
2019-02-15T04:04:29.249Z,9.33
2019-02-15T04:06:57.929Z,8.88
2019-02-15T04:09:26.574Z,9.20
2019-02-15T04:11:55.215Z,9.80
2019-02-15T04:14:32.541Z,8.50
2019-02-15T04:16:54.004Z,9.70
2019-02-15T04:19:22.629Z,8.93
2019-02-15T04:21:51.335Z,9.30
2019-02-15T04:24:19.985Z,11.18
2019-02-15T04:26:48.578Z,10.03
2019-02-15T04:29:17.106Z,9.10
2019-02-15T04:31:45.842Z,10.18
2019-02-15T04:34:14.411Z,9.30
2019-02-15T04:36:43.076Z,9.68
2019-02-15T04:39:11.569Z,9.53
2019-02-15T04:41:40.204Z,10.75
2019-02-15T04:44:08.909Z,9.30
2019-02-15T04:46:37.530Z,9.28
2019-02-15T04:49:06.144Z,9.78
2019-02-15T04:51:34.811Z,9.33
2019-02-15T04:54:03.404Z,8.93
2019-02-15T04:56:32.107Z,9.33
2019-02-15T04:59:00.819Z,10.38
2019-02-15T05:01:29.476Z,11.68
2019-02-15T05:03:58.147Z,9.70
2019-02-15T05:06:26.738Z,10.65
2019-02-15T05:08:55.483Z,10.43
2019-02-15T05:11:24.105Z,10.53
2019-02-15T05:13:52.720Z,9.88
2019-02-15T05:16:21.437Z,11.65
2019-02-15T05:18:50.175Z,12.23
2019-02-15T05:21:21.099Z,13.75
2019-02-15T05:23:49.843Z,13.88
2019-02-15T05:26:18.487Z,12.90
2019-02-15T05:28:47.181Z,12.60
2019-02-15T05:31:15.740Z,12.47
2019-02-15T05:33:44.284Z,11.73
2019-02-15T05:36:12.980Z,12.05
2019-02-15T05:38:41.673Z,11.63
2019-02-15T05:41:10.281Z,12.78
2019-02-15T05:43:38.902Z,12.35
2019-02-15T05:46:07.828Z,11.63
2019-02-15T05:48:36.498Z,12.65
2019-02-15T05:51:06.452Z,12.35
2019-02-15T05:53:35.106Z,11.68
2019-02-15T05:56:03.729Z,12.65
2019-02-15T05:58:32.311Z,12.45
2019-02-15T06:01:00.918Z,12.55
2019-02-15T06:03:29.440Z,12.30
2019-02-15T06:05:58.197Z,12.43
2019-02-15T06:08:28.530Z,13.15
2019-02-15T06:11:06.518Z,12.50
2019-02-15T06:13:27.444Z,12.68
2019-02-15T06:15:56.212Z,13.20
2019-02-15T06:18:24.915Z,12.75
2019-02-15T06:20:53.628Z,13.43
2019-02-15T06:23:22.294Z,12.68
2019-02-15T06:25:50.873Z,13.15
2019-02-15T06:28:19.424Z,13.38
2019-02-15T06:30:48.135Z,13.00
2019-02-15T06:33:16.760Z,13.35
2019-02-15T06:35:45.379Z,13.40
2019-02-15T06:38:14.053Z,14.18
2019-02-15T06:40:42.703Z,12.80
2019-02-15T06:43:11.240Z,13.10
2019-02-15T06:45:39.907Z,13.68
2019-02-15T06:48:08.754Z,13.50
2019-02-15T06:50:37.398Z,13.85
2019-02-15T06:53:06.111Z,13.40
2019-02-15T06:55:34.556Z,14.00
2019-02-15T06:58:03.142Z,14.80
2019-02-15T07:00:33.437Z,15.68
2019-02-15T07:03:03.735Z,20.30
2019-02-15T07:05:32.248Z,21.00
2019-02-15T07:08:00.992Z,18.77
2019-02-15T07:10:29.688Z,15.58
2019-02-15T07:12:58.399Z,15.10
2019-02-15T07:15:33.463Z,15.32
2019-02-15T07:17:57.386Z,15.83
2019-02-15T07:20:26.014Z,16.57
2019-02-15T07:22:54.729Z,15.63
2019-02-15T07:25:23.441Z,14.73
2019-02-15T07:27:52.143Z,15.10
2019-02-15T07:30:20.666Z,14.25
2019-02-15T07:32:49.365Z,13.98
2019-02-15T07:35:17.908Z,13.98
2019-02-15T07:37:46.580Z,14.73
2019-02-15T07:40:15.167Z,14.75
2019-02-15T07:42:43.780Z,14.75
2019-02-15T07:45:12.599Z,14.45
2019-02-15T07:47:41.152Z,15.10
2019-02-15T07:50:12.407Z,14.83
2019-02-15T07:52:40.971Z,13.88
2019-02-15T07:55:09.810Z,14.55
2019-02-15T07:57:38.430Z,14.10
2019-02-15T08:00:10.312Z,17.00
2019-02-15T08:02:38.906Z,15.58
2019-02-15T08:05:08.913Z,15.15
2019-02-15T08:07:37.505Z,15.10
2019-02-15T08:10:09.174Z,14.87
2019-02-15T08:12:37.861Z,16.82
2019-02-15T08:15:08.805Z,16.00
2019-02-15T08:17:37.893Z,13.98
2019-02-15T08:20:11.189Z,13.90
2019-02-15T08:22:40.008Z,14.90
2019-02-15T08:25:09.228Z,13.85
2019-02-15T08:27:37.962Z,15.40
2019-02-15T08:30:09.427Z,13.62
2019-02-15T08:32:38.197Z,14.55
2019-02-15T08:35:09.270Z,14.63
2019-02-15T08:37:37.966Z,15.13
2019-02-15T08:40:09.241Z,15.25
2019-02-15T08:42:37.846Z,18.07
2019-02-15T08:45:09.545Z,17.98
2019-02-15T08:47:39.726Z,18.45
2019-02-15T08:50:12.276Z,18.70
2019-02-15T08:52:40.965Z,17.82
2019-02-15T08:55:11.097Z,15.65
2019-02-15T08:57:39.808Z,17.80
2019-02-15T09:00:11.039Z,15.45
2019-02-15T09:02:39.649Z,14.40
2019-02-15T09:05:11.003Z,15.15
2019-02-15T09:07:39.729Z,14.80
2019-02-15T09:10:10.624Z,14.83
2019-02-15T09:12:39.347Z,14.47
2019-02-15T09:15:13.808Z,14.03
2019-02-15T09:17:42.378Z,14.10
2019-02-15T09:20:12.199Z,15.28
2019-02-15T09:22:40.738Z,14.00
2019-02-15T09:25:10.689Z,14.00
2019-02-15T09:27:43.975Z,13.32
2019-02-15T09:30:14.299Z,13.50
2019-02-15T09:32:42.981Z,13.62
2019-02-15T09:35:12.183Z,13.78
2019-02-15T09:37:40.941Z,14.60
2019-02-15T09:40:10.506Z,15.28
2019-02-15T09:42:39.185Z,14.50
2019-02-15T09:45:10.994Z,14.55
2019-02-15T09:47:39.709Z,14.83
2019-02-15T09:50:12.530Z,14.38
2019-02-15T09:52:41.241Z,15.35
2019-02-15T09:55:09.869Z,16.40
2019-02-15T09:57:38.628Z,18.00
2019-02-15T10:00:09.100Z,15.18
2019-02-15T10:02:37.808Z,13.80
2019-02-15T10:05:08.015Z,15.80
2019-02-15T10:07:36.683Z,14.85
2019-02-15T10:10:08.122Z,14.43
2019-02-15T10:12:36.812Z,14.87
2019-02-15T10:15:10.702Z,16.57
2019-02-15T10:17:39.365Z,17.10
2019-02-15T10:20:10.043Z,16.90
2019-02-15T10:22:38.898Z,17.25
2019-02-15T10:25:08.989Z,17.67
2019-02-15T10:27:37.535Z,19.23
2019-02-15T10:30:11.271Z,19.12
2019-02-15T10:32:39.999Z,21.45
2019-02-15T10:35:10.759Z,17.92
2019-02-15T10:37:39.495Z,18.35
2019-02-15T10:40:09.857Z,17.15
2019-02-15T10:42:38.590Z,17.52
2019-02-15T10:45:13.016Z,17.35
2019-02-15T10:47:41.824Z,18.67
2019-02-15T10:50:11.504Z,17.05
2019-02-15T10:52:40.278Z,15.95
2019-02-15T10:55:12.681Z,17.25
2019-02-15T10:57:41.198Z,15.65
2019-02-15T11:00:19.172Z,16.20
2019-02-15T11:02:48.061Z,15.60
2019-02-15T11:05:17.589Z,15.83
2019-02-15T11:07:46.411Z,16.45
2019-02-15T11:10:15.092Z,16.35
2019-02-15T11:12:43.623Z,16.57
2019-02-15T11:15:16.801Z,16.85
2019-02-15T11:17:45.469Z,16.90
2019-02-15T11:20:18.562Z,15.50
2019-02-15T11:22:47.263Z,16.07
2019-02-15T11:25:15.972Z,15.80
2019-02-15T11:27:44.777Z,16.25
2019-02-15T11:30:16.947Z,15.70
2019-02-15T11:32:45.526Z,15.50
2019-02-15T11:35:14.568Z,15.85
2019-02-15T11:37:43.345Z,17.35
2019-02-15T11:40:13.745Z,17.40
2019-02-15T11:42:42.409Z,15.95
2019-02-15T11:45:15.675Z,17.15
2019-02-15T11:47:44.351Z,16.57
2019-02-15T11:50:17.515Z,15.90
2019-02-15T11:52:46.226Z,15.57
2019-02-15T11:55:14.979Z,16.00
2019-02-15T11:57:43.655Z,16.10
2019-02-15T12:00:20.455Z,17.25
2019-02-15T12:02:48.553Z,16.40
2019-02-15T12:05:17.303Z,16.20
2019-02-15T12:07:45.809Z,15.40
2019-02-15T12:10:14.576Z,16.12
2019-02-15T12:12:43.219Z,16.55
2019-02-15T12:15:11.827Z,15.85
2019-02-15T12:17:40.458Z,16.00
2019-02-15T12:20:11.245Z,14.83
2019-02-15T12:22:39.903Z,14.13
2019-02-15T12:25:08.844Z,15.30
2019-02-15T12:27:37.542Z,14.98
2019-02-15T12:30:11.232Z,14.13
2019-02-15T12:32:39.880Z,15.75
2019-02-15T12:35:09.653Z,13.93
2019-02-15T12:37:38.875Z,14.50
2019-02-15T12:40:09.408Z,13.75
2019-02-15T12:42:38.108Z,13.58
2019-02-15T12:45:14.073Z,13.45
2019-02-15T12:47:42.799Z,12.82
2019-02-15T12:50:14.475Z,15.45
2019-02-15T12:52:43.500Z,14.50
2019-02-15T12:55:12.094Z,13.85
2019-02-15T12:57:40.685Z,14.43
2019-02-15T13:00:14.227Z,14.00
2019-02-15T13:02:42.968Z,13.35
2019-02-15T13:05:12.585Z,14.23
2019-02-15T13:07:41.372Z,13.75
2019-02-15T13:10:13.016Z,14.53
2019-02-15T13:12:41.604Z,13.08
2019-02-15T13:15:11.852Z,13.48
2019-02-15T13:17:40.371Z,14.00
2019-02-15T13:20:09.895Z,13.28
2019-02-15T13:22:38.631Z,12.20
2019-02-15T13:25:08.080Z,13.30
2019-02-15T13:27:36.870Z,12.60
2019-02-15T13:30:16.671Z,13.60
2019-02-15T13:32:45.484Z,13.13
2019-02-15T13:35:22.650Z,14.38
2019-02-15T13:37:51.437Z,14.13
2019-02-15T13:40:20.124Z,14.00
2019-02-15T13:42:48.868Z,13.60
2019-02-15T13:45:17.644Z,13.70
2019-02-15T13:47:46.368Z,13.48
2019-02-15T13:50:16.176Z,13.62
2019-02-15T13:52:44.935Z,13.38
2019-02-15T13:55:13.692Z,12.68
2019-02-15T13:57:42.365Z,13.83
2019-02-15T14:00:13.000Z,13.40
2019-02-15T14:02:41.656Z,13.48
2019-02-15T14:05:12.337Z,13.58
2019-02-15T14:07:42.095Z,14.03
2019-02-15T14:10:12.292Z,15.08
2019-02-15T14:12:41.373Z,15.50
2019-02-15T14:15:11.149Z,13.95
2019-02-15T14:17:44.796Z,12.53
2019-02-15T14:20:12.037Z,11.70
2019-02-15T14:22:40.733Z,12.40
2019-02-15T14:25:12.651Z,12.58
2019-02-15T14:27:41.546Z,12.88
2019-02-15T14:30:11.811Z,12.78
2019-02-15T14:32:40.553Z,12.95
2019-02-15T14:35:10.667Z,12.07
2019-02-15T14:37:39.282Z,12.10
2019-02-15T14:40:10.243Z,12.07
2019-02-15T14:42:38.988Z,12.78
2019-02-15T14:45:10.015Z,12.68
2019-02-15T14:47:38.675Z,12.73
2019-02-15T14:50:09.296Z,12.80
2019-02-15T14:52:37.927Z,12.60
2019-02-15T14:55:08.447Z,13.55
2019-02-15T14:57:37.371Z,14.20
2019-02-15T15:00:11.511Z,13.70
2019-02-15T15:05:08.927Z,13.70
2019-02-15T15:07:37.616Z,13.78
2019-02-15T15:10:08.656Z,14.33
2019-02-15T15:12:37.877Z,15.60
2019-02-15T15:15:11.583Z,14.58
2019-02-15T15:17:39.952Z,14.98
2019-02-15T15:20:10.742Z,15.38
2019-02-15T15:22:39.627Z,14.95
2019-02-15T15:25:12.726Z,16.17
2019-02-15T15:27:41.365Z,16.90
2019-02-15T15:30:12.376Z,16.02
2019-02-15T15:32:41.097Z,16.35
2019-02-15T15:35:11.195Z,18.27
2019-02-15T15:37:39.804Z,17.00
2019-02-15T15:40:13.329Z,18.27
2019-02-15T15:42:43.606Z,17.73
2019-02-15T15:45:12.804Z,17.48
2019-02-15T15:47:41.497Z,17.92
2019-02-15T15:50:13.942Z,18.52
2019-02-15T15:52:44.513Z,19.25
2019-02-15T15:55:13.766Z,19.30
2019-02-15T15:57:42.568Z,19.07
2019-02-15T16:00:16.077Z,17.48
2019-02-15T16:02:44.596Z,19.17
2019-02-15T16:05:13.366Z,18.65
2019-02-15T16:07:43.644Z,18.67
2019-02-15T16:10:13.679Z,19.45
2019-02-15T16:12:42.282Z,19.15
2019-02-15T16:15:12.282Z,17.98
2019-02-15T16:17:40.782Z,16.65
2019-02-15T16:20:11.981Z,17.82
2019-02-15T16:22:40.680Z,17.07
2019-02-15T16:25:09.953Z,17.02
2019-02-15T16:27:38.586Z,16.80
2019-02-15T16:30:10.652Z,17.87
2019-02-15T16:32:39.340Z,19.05
2019-02-15T16:35:08.011Z,18.07
2019-02-15T16:37:36.587Z,17.70
2019-02-15T16:40:11.857Z,17.35
2019-02-15T16:42:40.657Z,18.85
2019-02-15T16:45:15.866Z,17.52
2019-02-15T16:47:44.509Z,18.50
2019-02-15T16:50:13.487Z,17.82
2019-02-15T16:52:42.252Z,20.55
2019-02-15T16:55:13.082Z,20.45
2019-02-15T16:57:41.261Z,19.87
2019-02-15T17:00:12.155Z,19.27
2019-02-15T17:02:41.084Z,19.90
2019-02-15T17:05:10.144Z,20.55
2019-02-15T17:07:38.875Z,19.45
2019-02-15T17:10:09.309Z,20.95
2019-02-15T17:12:37.994Z,20.23
2019-02-15T17:15:14.083Z,22.02
2019-02-15T17:17:44.372Z,23.73
2019-02-15T17:20:13.058Z,23.67
2019-02-15T17:22:41.701Z,23.77
2019-02-15T17:25:11.583Z,23.95
2019-02-15T17:27:40.273Z,23.20
2019-02-15T17:30:10.874Z,23.27
2019-02-15T17:32:39.670Z,23.38
2019-02-15T17:35:10.146Z,23.70
2019-02-15T17:37:38.962Z,25.08
2019-02-15T17:40:16.547Z,23.38
2019-02-15T17:42:45.314Z,22.17
2019-02-15T17:45:13.897Z,24.55
2019-02-15T17:47:42.534Z,22.20
2019-02-15T17:50:12.039Z,22.58
2019-02-15T17:52:40.597Z,23.80
2019-02-15T17:55:10.772Z,22.90
2019-02-15T17:57:39.486Z,23.67
2019-02-15T18:00:11.302Z,23.70
2019-02-15T18:02:40.043Z,24.35
2019-02-15T18:05:11.821Z,23.38
2019-02-15T18:07:40.445Z,25.02
2019-02-15T18:10:08.983Z,24.80
2019-02-15T18:12:37.678Z,23.02
2019-02-15T18:15:06.690Z,24.80
2019-02-15T18:17:35.296Z,24.20
2019-02-15T18:20:05.132Z,23.50
2019-02-15T18:22:33.736Z,23.55
2019-02-15T18:25:02.337Z,23.87
2019-02-15T18:27:30.909Z,22.67
2019-02-15T18:29:59.480Z,22.65
2019-02-15T18:32:28.060Z,22.67
2019-02-15T18:34:56.665Z,22.48
2019-02-15T18:37:25.263Z,22.93
2019-02-15T18:39:53.895Z,21.82
2019-02-15T18:42:22.556Z,21.45
2019-02-15T18:44:51.259Z,20.70
2019-02-15T18:47:19.985Z,20.80
2019-02-15T18:49:50.259Z,20.30
2019-02-15T18:52:18.805Z,19.90
2019-02-15T18:54:47.477Z,19.37
2019-02-15T18:57:16.205Z,19.37
2019-02-15T18:59:44.911Z,18.70
2019-02-15T19:02:13.628Z,19.75
2019-02-15T19:04:42.326Z,16.67
2019-02-15T19:07:11.206Z,16.75
2019-02-15T19:09:39.774Z,17.20
2019-02-15T19:12:08.549Z,16.75
2019-02-15T19:14:37.170Z,15.55
2019-02-15T19:17:05.759Z,15.63
2019-02-15T19:19:34.727Z,15.13
2019-02-15T19:22:03.350Z,15.85
2019-02-15T19:24:31.982Z,15.80
2019-02-15T19:27:01.732Z,16.60
2019-02-15T19:29:30.363Z,14.28
2019-02-15T19:31:59.014Z,14.63
2019-02-15T19:34:47.049Z,14.38
2019-02-15T19:37:15.692Z,14.93
2019-02-15T19:39:44.356Z,14.15
2019-02-15T19:42:13.100Z,14.47
2019-02-15T19:44:41.744Z,14.65
2019-02-15T19:47:10.373Z,14.30
2019-02-15T19:49:39.229Z,15.13
2019-02-15T19:52:07.982Z,15.60
2019-02-15T19:54:36.666Z,14.83
2019-02-15T19:57:05.410Z,13.30
2019-02-15T19:59:33.981Z,13.18
2019-02-15T20:02:02.715Z,13.70
2019-02-15T20:04:31.356Z,12.80
2019-02-15T20:06:59.958Z,14.60
2019-02-15T20:09:28.782Z,11.38
2019-02-15T20:11:57.503Z,14.58
2019-02-15T20:14:28.090Z,12.18
2019-02-15T20:16:56.605Z,12.40
2019-02-15T20:19:25.333Z,12.63
2019-02-15T20:21:53.972Z,13.60
2019-02-15T20:24:22.576Z,13.20
2019-02-15T20:26:51.316Z,13.83
2019-02-15T20:29:20.014Z,14.78
2019-02-15T20:31:48.741Z,16.17
2019-02-15T20:34:17.316Z,17.40
2019-02-15T20:36:45.979Z,16.62
2019-02-15T20:39:14.664Z,17.35
2019-02-15T20:41:43.363Z,17.50
2019-02-15T20:44:11.950Z,17.60
2019-02-15T20:46:40.641Z,16.25
2019-02-15T20:49:09.381Z,16.77
2019-02-15T20:51:38.013Z,17.12
2019-02-15T20:54:06.556Z,17.05
2019-02-15T20:56:35.329Z,16.77
2019-02-15T20:59:04.039Z,17.15
2019-02-15T21:01:32.599Z,17.48
2019-02-15T21:04:01.143Z,16.73
2019-02-15T21:06:29.774Z,16.85
2019-02-15T21:08:58.472Z,16.80
2019-02-15T21:11:27.285Z,18.35
2019-02-15T21:13:55.964Z,17.80
2019-02-15T21:16:24.639Z,16.57
2019-02-15T21:18:53.286Z,14.95
2019-02-15T21:21:21.964Z,15.63
2019-02-15T21:23:50.616Z,14.20
2019-02-15T21:26:19.169Z,14.18
2019-02-15T21:28:48.050Z,13.72
2019-02-15T21:31:16.672Z,13.88
2019-02-15T21:33:45.333Z,12.98
2019-02-15T21:36:13.951Z,12.73
2019-02-15T21:38:42.507Z,12.20
2019-02-15T21:41:11.194Z,12.18
2019-02-15T21:43:39.892Z,12.23
2019-02-15T21:46:08.414Z,10.70
2019-02-15T21:48:37.622Z,11.05
2019-02-15T21:51:06.236Z,10.20
2019-02-15T21:53:34.969Z,9.60
2019-02-15T21:56:03.657Z,10.20
2019-02-15T21:58:32.252Z,9.98
2019-02-15T22:01:01.498Z,10.60
2019-02-15T22:03:30.273Z,9.93
2019-02-15T22:05:58.940Z,9.05
2019-02-15T22:08:27.513Z,9.25
2019-02-15T22:10:56.235Z,9.45
2019-02-15T22:13:25.101Z,9.45
2019-02-15T22:15:53.848Z,9.68
2019-02-15T22:18:22.553Z,9.25
2019-02-15T22:20:51.512Z,8.88
2019-02-15T22:23:20.108Z,8.78
2019-02-15T22:25:48.698Z,9.70
2019-02-15T22:28:17.253Z,8.75
2019-02-15T22:30:45.911Z,10.05
2019-02-15T22:33:14.476Z,9.05
2019-02-15T22:35:43.074Z,9.08
2019-02-15T22:38:11.686Z,9.08
2019-02-15T22:40:40.844Z,9.15
2019-02-15T22:43:12.623Z,8.88
2019-02-15T22:45:41.251Z,8.90
2019-02-15T22:48:09.786Z,8.68
2019-02-15T22:50:38.440Z,8.28
2019-02-15T22:53:06.987Z,9.20
2019-02-15T22:55:35.619Z,8.63
2019-02-15T22:58:04.701Z,7.87
2019-02-15T23:00:52.490Z,8.48
2019-02-15T23:03:23.278Z,7.72
2019-02-15T23:05:51.843Z,8.35
2019-02-15T23:08:20.494Z,7.87
2019-02-15T23:10:49.147Z,7.80
2019-02-15T23:13:17.605Z,7.72
2019-02-15T23:15:46.504Z,7.80
2019-02-15T23:18:15.157Z,7.42
2019-02-15T23:20:45.553Z,7.15
2019-02-15T23:23:14.099Z,7.97
2019-02-15T23:25:42.706Z,7.50
2019-02-15T23:28:11.215Z,7.37
2019-02-15T23:30:39.731Z,6.65
2019-02-15T23:33:11.771Z,7.10
2019-02-15T23:35:40.343Z,6.95
2019-02-15T23:38:08.972Z,7.37
2019-02-15T23:40:37.538Z,7.05
2019-02-15T23:43:06.230Z,7.10
2019-02-15T23:45:34.936Z,7.53
2019-02-15T23:48:03.457Z,7.33
2019-02-15T23:50:32.207Z,7.47
2019-02-15T23:53:00.868Z,7.95
2019-02-15T23:55:29.423Z,6.97
2019-02-15T23:57:57.924Z,7.47
